sensor_id;sensor_type;location;lat;lon;timestamp;P1;durP1;ratioP1;P2;durP2;ratioP2
10452;SDS011;5274;51.992;8.518;2023-01-15T00:00:12;2.67;;;1.13;;
10452;SDS011;5274;51.992;8.518;2023-01-15T00:02:38;3.90;;;0.90;;
10452;SDS011;5274;51.992;8.518;2023-01-15T00:05:04;2.23;;;1.23;;
10452;SDS011;5274;51.992;8.518;2023-01-15T00:07:30;8.20;;;1.30;;
10452;SDS011;5274;51.992;8.518;2023-01-15T00:09:56;9.05;;;1.30;;
10452;SDS011;5274;51.992;8.518;2023-01-15T00:12:21;3.97;;;1.13;;
10452;SDS011;5274;51.992;8.518;2023-01-15T00:14:47;0.30;;;0.30;;
10452;SDS011;5274;51.992;8.518;2023-01-15T00:17:13;0.30;;;0.30;;
10452;SDS011;5274;51.992;8.518;2023-01-15T00:19:38;2.10;;;2.00;;
10452;SDS011;5274;51.992;8.518;2023-01-15T00:22:04;0.30;;;0.30;;
10452;SDS011;5274;51.992;8.518;2023-01-15T00:24:29;0.40;;;0.40;;
10452;SDS011;5274;51.992;8.518;2023-01-15T00:27:13;3.83;;;0.80;;
10452;SDS011;5274;51.992;8.518;2023-01-15T00:29:57;4.33;;;1.17;;
10452;SDS011;5274;51.992;8.518;2023-01-15T00:32:23;0.30;;;0.30;;
10452;SDS011;5274;51.992;8.518;2023-01-15T00:34:51;0.30;;;0.30;;
10452;SDS011;5274;51.992;8.518;2023-01-15T00:37:17;0.30;;;0.30;;
10452;SDS011;5274;51.992;8.518;2023-01-15T00:39:42;0.30;;;0.30;;
10452;SDS011;5274;51.992;8.518;2023-01-15T00:42:08;0.30;;;0.30;;
10452;SDS011;5274;51.992;8.518;2023-01-15T00:44:35;0.30;;;0.30;;
10452;SDS011;5274;51.992;8.518;2023-01-15T00:47:00;0.30;;;0.30;;
10452;SDS011;5274;51.992;8.518;2023-01-15T00:49:26;0.30;;;0.30;;
10452;SDS011;5274;51.992;8.518;2023-01-15T00:51:51;0.30;;;0.30;;
10452;SDS011;5274;51.992;8.518;2023-01-15T00:54:17;0.30;;;0.30;;
10452;SDS011;5274;51.992;8.518;2023-01-15T00:56:42;0.30;;;0.30;;
10452;SDS011;5274;51.992;8.518;2023-01-15T00:59:08;1.23;;;0.80;;
10452;SDS011;5274;51.992;8.518;2023-01-15T01:01:34;0.93;;;0.80;;
10452;SDS011;5274;51.992;8.518;2023-01-15T01:03:59;0.20;;;0.20;;
10452;SDS011;5274;51.992;8.518;2023-01-15T01:06:25;0.30;;;0.30;;
10452;SDS011;5274;51.992;8.518;2023-01-15T01:08:51;0.83;;;0.83;;
10452;SDS011;5274;51.992;8.518;2023-01-15T01:11:18;0.30;;;0.30;;
10452;SDS011;5274;51.992;8.518;2023-01-15T01:13:45;0.30;;;0.30;;
10452;SDS011;5274;51.992;8.518;2023-01-15T01:16:24;0.60;;;0.60;;
10452;SDS011;5274;51.992;8.518;2023-01-15T01:18:50;0.77;;;0.67;;
10452;SDS011;5274;51.992;8.518;2023-01-15T01:21:16;1.20;;;0.60;;
10452;SDS011;5274;51.992;8.518;2023-01-15T01:23:42;0.60;;;0.60;;
10452;SDS011;5274;51.992;8.518;2023-01-15T01:26:08;0.60;;;0.60;;
10452;SDS011;5274;51.992;8.518;2023-01-15T01:28:34;2.63;;;0.67;;
10452;SDS011;5274;51.992;8.518;2023-01-15T01:31:03;0.60;;;0.60;;
10452;SDS011;5274;51.992;8.518;2023-01-15T01:33:29;0.63;;;0.60;;
10452;SDS011;5274;51.992;8.518;2023-01-15T01:35:55;2.20;;;0.70;;
10452;SDS011;5274;51.992;8.518;2023-01-15T01:38:20;0.73;;;0.60;;
10452;SDS011;5274;51.992;8.518;2023-01-15T01:40:46;1.80;;;0.70;;
10452;SDS011;5274;51.992;8.518;2023-01-15T01:43:18;5.00;;;0.70;;
10452;SDS011;5274;51.992;8.518;2023-01-15T01:45:50;0.60;;;0.60;;
10452;SDS011;5274;51.992;8.518;2023-01-15T01:48:17;3.70;;;1.00;;
10452;SDS011;5274;51.992;8.518;2023-01-15T01:50:48;0.67;;;0.67;;
10452;SDS011;5274;51.992;8.518;2023-01-15T01:53:19;2.07;;;0.93;;
10452;SDS011;5274;51.992;8.518;2023-01-15T01:55:47;0.90;;;0.57;;
10452;SDS011;5274;51.992;8.518;2023-01-15T01:58:14;4.77;;;0.80;;
10452;SDS011;5274;51.992;8.518;2023-01-15T02:00:43;6.70;;;0.70;;
10452;SDS011;5274;51.992;8.518;2023-01-15T02:03:12;1.13;;;0.90;;
10452;SDS011;5274;51.992;8.518;2023-01-15T02:05:38;0.67;;;0.67;;
10452;SDS011;5274;51.992;8.518;2023-01-15T02:08:09;1.70;;;0.80;;
10452;SDS011;5274;51.992;8.518;2023-01-15T02:10:34;2.00;;;1.00;;
10452;SDS011;5274;51.992;8.518;2023-01-15T02:13:06;4.93;;;1.10;;
10452;SDS011;5274;51.992;8.518;2023-01-15T02:15:40;2.57;;;1.00;;
10452;SDS011;5274;51.992;8.518;2023-01-15T02:18:11;5.07;;;2.13;;
10452;SDS011;5274;51.992;8.518;2023-01-15T02:20:47;5.53;;;2.03;;
10452;SDS011;5274;51.992;8.518;2023-01-15T02:23:20;2.20;;;1.50;;
10452;SDS011;5274;51.992;8.518;2023-01-15T02:26:12;2.13;;;1.63;;
10452;SDS011;5274;51.992;8.518;2023-01-15T02:28:43;5.83;;;1.70;;
10452;SDS011;5274;51.992;8.518;2023-01-15T02:31:16;2.17;;;1.80;;
10452;SDS011;5274;51.992;8.518;2023-01-15T02:34:09;3.53;;;1.50;;
10452;SDS011;5274;51.992;8.518;2023-01-15T02:36:39;2.93;;;1.40;;
10452;SDS011;5274;51.992;8.518;2023-01-15T02:39:07;3.07;;;1.17;;
10452;SDS011;5274;51.992;8.518;2023-01-15T02:41:44;4.97;;;1.93;;
10452;SDS011;5274;51.992;8.518;2023-01-15T02:44:16;3.07;;;2.00;;
10452;SDS011;5274;51.992;8.518;2023-01-15T02:46:43;4.83;;;2.23;;
10452;SDS011;5274;51.992;8.518;2023-01-15T02:49:12;3.27;;;1.63;;
10452;SDS011;5274;51.992;8.518;2023-01-15T02:51:45;3.87;;;2.43;;
10452;SDS011;5274;51.992;8.518;2023-01-15T02:54:21;4.37;;;2.20;;
10452;SDS011;5274;51.992;8.518;2023-01-15T02:56:50;3.97;;;2.20;;
10452;SDS011;5274;51.992;8.518;2023-01-15T02:59:20;3.47;;;2.50;;
10452;SDS011;5274;51.992;8.518;2023-01-15T03:01:54;5.10;;;2.60;;
10452;SDS011;5274;51.992;8.518;2023-01-15T03:04:26;4.47;;;2.20;;
10452;SDS011;5274;51.992;8.518;2023-01-15T03:07:04;5.57;;;2.67;;
10452;SDS011;5274;51.992;8.518;2023-01-15T03:09:35;3.77;;;2.53;;
10452;SDS011;5274;51.992;8.518;2023-01-15T03:12:06;12.20;;;2.97;;
10452;SDS011;5274;51.992;8.518;2023-01-15T03:14:51;4.07;;;2.73;;
10452;SDS011;5274;51.992;8.518;2023-01-15T03:17:18;6.60;;;2.77;;
10452;SDS011;5274;51.992;8.518;2023-01-15T03:19:49;3.60;;;2.50;;
10452;SDS011;5274;51.992;8.518;2023-01-15T03:22:22;7.87;;;2.90;;
10452;SDS011;5274;51.992;8.518;2023-01-15T03:27:28;5.60;;;3.33;;
10452;SDS011;5274;51.992;8.518;2023-01-15T03:29:54;5.80;;;3.30;;
10452;SDS011;5274;51.992;8.518;2023-01-15T03:32:29;8.37;;;3.40;;
10452;SDS011;5274;51.992;8.518;2023-01-15T03:34:55;4.57;;;2.93;;
10452;SDS011;5274;51.992;8.518;2023-01-15T03:37:22;4.13;;;2.80;;
10452;SDS011;5274;51.992;8.518;2023-01-15T03:39:49;4.07;;;2.30;;
10452;SDS011;5274;51.992;8.518;2023-01-15T03:44:55;7.20;;;2.40;;
10452;SDS011;5274;51.992;8.518;2023-01-15T03:47:28;5.30;;;2.10;;
10452;SDS011;5274;51.992;8.518;2023-01-15T03:50:02;5.93;;;1.50;;
10452;SDS011;5274;51.992;8.518;2023-01-15T03:59:10;2.53;;;1.20;;
10452;SDS011;5274;51.992;8.518;2023-01-15T04:01:40;2.80;;;1.50;;
10452;SDS011;5274;51.992;8.518;2023-01-15T04:04:08;7.77;;;1.70;;
10452;SDS011;5274;51.992;8.518;2023-01-15T04:06:35;7.03;;;1.73;;
10452;SDS011;5274;51.992;8.518;2023-01-15T04:09:04;2.63;;;1.60;;
10452;SDS011;5274;51.992;8.518;2023-01-15T04:11:32;8.13;;;1.50;;
10452;SDS011;5274;51.992;8.518;2023-01-15T04:13:58;4.50;;;1.90;;
10452;SDS011;5274;51.992;8.518;2023-01-15T04:16:24;5.57;;;1.50;;
10452;SDS011;5274;51.992;8.518;2023-01-15T04:18:52;4.53;;;1.50;;
10452;SDS011;5274;51.992;8.518;2023-01-15T04:21:18;4.87;;;1.70;;
10452;SDS011;5274;51.992;8.518;2023-01-15T04:23:44;3.47;;;1.70;;
10452;SDS011;5274;51.992;8.518;2023-01-15T04:26:10;6.53;;;1.63;;
10452;SDS011;5274;51.992;8.518;2023-01-15T04:28:36;2.47;;;1.57;;
10452;SDS011;5274;51.992;8.518;2023-01-15T04:31:02;2.43;;;1.50;;
10452;SDS011;5274;51.992;8.518;2023-01-15T04:33:27;5.27;;;1.80;;
10452;SDS011;5274;51.992;8.518;2023-01-15T04:35:53;5.07;;;1.60;;
10452;SDS011;5274;51.992;8.518;2023-01-15T04:38:18;5.80;;;1.60;;
10452;SDS011;5274;51.992;8.518;2023-01-15T04:40:44;3.03;;;1.33;;
10452;SDS011;5274;51.992;8.518;2023-01-15T04:43:28;5.13;;;1.73;;
10452;SDS011;5274;51.992;8.518;2023-01-15T04:46:12;2.77;;;1.80;;
10452;SDS011;5274;51.992;8.518;2023-01-15T04:48:38;7.23;;;1.67;;
10452;SDS011;5274;51.992;8.518;2023-01-15T04:51:04;5.23;;;1.57;;
10452;SDS011;5274;51.992;8.518;2023-01-15T04:53:31;5.53;;;1.40;;
10452;SDS011;5274;51.992;8.518;2023-01-15T04:56:00;4.60;;;1.53;;
10452;SDS011;5274;51.992;8.518;2023-01-15T04:58:27;5.10;;;1.70;;
10452;SDS011;5274;51.992;8.518;2023-01-15T05:00:53;2.60;;;1.10;;
10452;SDS011;5274;51.992;8.518;2023-01-15T05:03:18;7.50;;;1.63;;
10452;SDS011;5274;51.992;8.518;2023-01-15T05:05:44;5.90;;;1.30;;
10452;SDS011;5274;51.992;8.518;2023-01-15T05:08:09;2.63;;;1.50;;
10452;SDS011;5274;51.992;8.518;2023-01-15T05:10:35;3.97;;;1.23;;
10452;SDS011;5274;51.992;8.518;2023-01-15T05:13:00;7.97;;;1.50;;
10452;SDS011;5274;51.992;8.518;2023-01-15T05:15:26;3.83;;;1.40;;
10452;SDS011;5274;51.992;8.518;2023-01-15T05:17:51;9.27;;;1.63;;
10452;SDS011;5274;51.992;8.518;2023-01-15T05:20:17;2.70;;;0.93;;
10452;SDS011;5274;51.992;8.518;2023-01-15T05:22:42;5.80;;;1.40;;
10452;SDS011;5274;51.992;8.518;2023-01-15T05:25:08;6.67;;;1.70;;
10452;SDS011;5274;51.992;8.518;2023-01-15T05:27:33;5.90;;;1.40;;
10452;SDS011;5274;51.992;8.518;2023-01-15T05:29:59;4.67;;;1.20;;
10452;SDS011;5274;51.992;8.518;2023-01-15T05:32:24;3.60;;;1.17;;
10452;SDS011;5274;51.992;8.518;2023-01-15T05:34:50;3.47;;;1.17;;
10452;SDS011;5274;51.992;8.518;2023-01-15T05:37:15;6.80;;;0.93;;
10452;SDS011;5274;51.992;8.518;2023-01-15T05:39:41;5.50;;;1.10;;
10452;SDS011;5274;51.992;8.518;2023-01-15T05:42:06;3.77;;;1.37;;
10452;SDS011;5274;51.992;8.518;2023-01-15T05:44:32;2.50;;;1.17;;
10452;SDS011;5274;51.992;8.518;2023-01-15T05:46:58;6.80;;;1.77;;
10452;SDS011;5274;51.992;8.518;2023-01-15T05:49:27;4.40;;;1.30;;
10452;SDS011;5274;51.992;8.518;2023-01-15T05:51:53;4.07;;;1.10;;
10452;SDS011;5274;51.992;8.518;2023-01-15T05:54:23;4.33;;;1.40;;
10452;SDS011;5274;51.992;8.518;2023-01-15T05:56:50;3.07;;;1.37;;
10452;SDS011;5274;51.992;8.518;2023-01-15T05:59:17;4.73;;;1.23;;
10452;SDS011;5274;51.992;8.518;2023-01-15T06:01:44;1.27;;;1.07;;
10452;SDS011;5274;51.992;8.518;2023-01-15T06:04:10;3.33;;;1.40;;
10452;SDS011;5274;51.992;8.518;2023-01-15T06:06:38;2.83;;;1.27;;
10452;SDS011;5274;51.992;8.518;2023-01-15T06:09:03;2.90;;;1.30;;
10452;SDS011;5274;51.992;8.518;2023-01-15T06:11:29;3.30;;;1.20;;
10452;SDS011;5274;51.992;8.518;2023-01-15T06:13:54;5.53;;;1.30;;
10452;SDS011;5274;51.992;8.518;2023-01-15T06:16:20;2.30;;;0.90;;
10452;SDS011;5274;51.992;8.518;2023-01-15T06:18:45;2.97;;;1.13;;
10452;SDS011;5274;51.992;8.518;2023-01-15T06:21:11;4.47;;;1.27;;
10452;SDS011;5274;51.992;8.518;2023-01-15T06:23:38;4.07;;;1.63;;
10452;SDS011;5274;51.992;8.518;2023-01-15T06:26:09;2.40;;;1.20;;
10452;SDS011;5274;51.992;8.518;2023-01-15T06:28:36;3.00;;;1.37;;
10452;SDS011;5274;51.992;8.518;2023-01-15T06:31:06;7.73;;;1.63;;
10452;SDS011;5274;51.992;8.518;2023-01-15T06:33:32;6.27;;;1.67;;
10452;SDS011;5274;51.992;8.518;2023-01-15T06:36:01;3.73;;;1.57;;
10452;SDS011;5274;51.992;8.518;2023-01-15T06:38:28;2.90;;;1.60;;
10452;SDS011;5274;51.992;8.518;2023-01-15T06:40:53;5.03;;;1.30;;
10452;SDS011;5274;51.992;8.518;2023-01-15T06:43:19;3.33;;;1.30;;
10452;SDS011;5274;51.992;8.518;2023-01-15T06:46:03;3.37;;;1.50;;
10452;SDS011;5274;51.992;8.518;2023-01-15T06:48:47;2.57;;;1.93;;
10452;SDS011;5274;51.992;8.518;2023-01-15T06:51:12;4.23;;;1.47;;
10452;SDS011;5274;51.992;8.518;2023-01-15T06:53:42;2.83;;;1.30;;
10452;SDS011;5274;51.992;8.518;2023-01-15T06:56:08;3.47;;;1.60;;
10452;SDS011;5274;51.992;8.518;2023-01-15T06:58:33;8.57;;;1.60;;
10452;SDS011;5274;51.992;8.518;2023-01-15T07:00:59;7.07;;;1.63;;
10452;SDS011;5274;51.992;8.518;2023-01-15T07:03:24;4.20;;;1.53;;
10452;SDS011;5274;51.992;8.518;2023-01-15T07:05:51;9.60;;;1.93;;
10452;SDS011;5274;51.992;8.518;2023-01-15T07:08:16;4.53;;;1.47;;
10452;SDS011;5274;51.992;8.518;2023-01-15T07:10:41;4.03;;;1.40;;
10452;SDS011;5274;51.992;8.518;2023-01-15T07:13:08;4.73;;;1.60;;
10452;SDS011;5274;51.992;8.518;2023-01-15T07:15:34;4.40;;;1.70;;
10452;SDS011;5274;51.992;8.518;2023-01-15T07:18:02;6.73;;;2.00;;
10452;SDS011;5274;51.992;8.518;2023-01-15T07:20:29;4.67;;;1.60;;
10452;SDS011;5274;51.992;8.518;2023-01-15T07:22:54;7.07;;;2.40;;
10452;SDS011;5274;51.992;8.518;2023-01-15T07:25:20;7.67;;;2.40;;
10452;SDS011;5274;51.992;8.518;2023-01-15T07:27:45;7.20;;;2.30;;
10452;SDS011;5274;51.992;8.518;2023-01-15T07:30:14;5.57;;;2.27;;
10452;SDS011;5274;51.992;8.518;2023-01-15T07:32:40;4.87;;;2.10;;
10452;SDS011;5274;51.992;8.518;2023-01-15T07:35:06;10.33;;;2.53;;
10452;SDS011;5274;51.992;8.518;2023-01-15T07:37:31;9.93;;;2.30;;
10452;SDS011;5274;51.992;8.518;2023-01-15T07:39:57;8.93;;;2.30;;
10452;SDS011;5274;51.992;8.518;2023-01-15T07:42:22;6.37;;;2.40;;
10452;SDS011;5274;51.992;8.518;2023-01-15T07:45:07;10.57;;;2.30;;
10452;SDS011;5274;51.992;8.518;2023-01-15T07:47:52;5.37;;;2.50;;
10452;SDS011;5274;51.992;8.518;2023-01-15T07:50:36;13.50;;;2.70;;
10452;SDS011;5274;51.992;8.518;2023-01-15T07:53:02;10.83;;;2.47;;
10452;SDS011;5274;51.992;8.518;2023-01-15T07:55:28;8.93;;;2.30;;
10452;SDS011;5274;51.992;8.518;2023-01-15T07:57:53;9.80;;;2.90;;
10452;SDS011;5274;51.992;8.518;2023-01-15T08:00:20;7.67;;;2.40;;
10452;SDS011;5274;51.992;8.518;2023-01-15T08:02:47;3.00;;;1.90;;
10452;SDS011;5274;51.992;8.518;2023-01-15T08:05:14;7.73;;;2.33;;
10452;SDS011;5274;51.992;8.518;2023-01-15T08:07:41;9.40;;;2.60;;
10452;SDS011;5274;51.992;8.518;2023-01-15T08:10:08;5.83;;;2.50;;
10452;SDS011;5274;51.992;8.518;2023-01-15T08:12:34;7.57;;;2.27;;
10452;SDS011;5274;51.992;8.518;2023-01-15T08:15:18;10.17;;;3.10;;
10452;SDS011;5274;51.992;8.518;2023-01-15T08:17:45;8.80;;;2.77;;
10452;SDS011;5274;51.992;8.518;2023-01-15T08:20:22;4.43;;;2.73;;
10452;SDS011;5274;51.992;8.518;2023-01-15T08:22:49;5.73;;;3.47;;
10452;SDS011;5274;51.992;8.518;2023-01-15T08:25:16;7.03;;;3.37;;
10452;SDS011;5274;51.992;8.518;2023-01-15T08:27:43;5.57;;;2.50;;
10452;SDS011;5274;51.992;8.518;2023-01-15T08:30:10;6.83;;;2.40;;
10452;SDS011;5274;51.992;8.518;2023-01-15T08:32:57;5.83;;;2.90;;
10452;SDS011;5274;51.992;8.518;2023-01-15T08:35:24;7.73;;;2.97;;
10452;SDS011;5274;51.992;8.518;2023-01-15T08:37:50;8.77;;;2.93;;
10452;SDS011;5274;51.992;8.518;2023-01-15T08:40:15;6.30;;;2.37;;
10452;SDS011;5274;51.992;8.518;2023-01-15T08:42:41;7.40;;;2.67;;
10452;SDS011;5274;51.992;8.518;2023-01-15T08:45:06;7.20;;;2.47;;
10452;SDS011;5274;51.992;8.518;2023-01-15T08:47:32;5.47;;;1.90;;
10452;SDS011;5274;51.992;8.518;2023-01-15T08:49:58;3.20;;;1.37;;
10452;SDS011;5274;51.992;8.518;2023-01-15T08:52:23;4.83;;;1.47;;
10452;SDS011;5274;51.992;8.518;2023-01-15T08:54:49;4.10;;;1.37;;
10452;SDS011;5274;51.992;8.518;2023-01-15T08:57:14;3.13;;;1.03;;
10452;SDS011;5274;51.992;8.518;2023-01-15T08:59:40;3.70;;;1.10;;
10452;SDS011;5274;51.992;8.518;2023-01-15T09:02:08;1.30;;;1.20;;
10452;SDS011;5274;51.992;8.518;2023-01-15T09:04:36;4.20;;;1.37;;
10452;SDS011;5274;51.992;8.518;2023-01-15T09:07:02;4.50;;;1.50;;
10452;SDS011;5274;51.992;8.518;2023-01-15T09:09:28;2.50;;;1.20;;
10452;SDS011;5274;51.992;8.518;2023-01-15T09:11:53;2.47;;;1.50;;
10452;SDS011;5274;51.992;8.518;2023-01-15T09:14:19;2.93;;;1.30;;
10452;SDS011;5274;51.992;8.518;2023-01-15T09:16:44;3.97;;;1.30;;
10452;SDS011;5274;51.992;8.518;2023-01-15T09:19:10;4.00;;;1.63;;
10452;SDS011;5274;51.992;8.518;2023-01-15T09:21:36;3.03;;;1.60;;
10452;SDS011;5274;51.992;8.518;2023-01-15T09:24:01;3.43;;;1.70;;
10452;SDS011;5274;51.992;8.518;2023-01-15T09:26:29;2.53;;;1.57;;
10452;SDS011;5274;51.992;8.518;2023-01-15T09:28:57;3.57;;;1.70;;
10452;SDS011;5274;51.992;8.518;2023-01-15T09:31:23;5.13;;;1.57;;
10452;SDS011;5274;51.992;8.518;2023-01-15T09:33:49;3.63;;;1.47;;
10452;SDS011;5274;51.992;8.518;2023-01-15T09:36:16;5.50;;;2.00;;
10452;SDS011;5274;51.992;8.518;2023-01-15T09:38:43;4.37;;;1.80;;
10452;SDS011;5274;51.992;8.518;2023-01-15T09:41:12;3.57;;;1.60;;
10452;SDS011;5274;51.992;8.518;2023-01-15T09:44:03;5.23;;;2.23;;
10452;SDS011;5274;51.992;8.518;2023-01-15T09:47:07;11.23;;;2.83;;
10452;SDS011;5274;51.992;8.518;2023-01-15T09:49:50;9.03;;;2.80;;
10452;SDS011;5274;51.992;8.518;2023-01-15T09:55:19;6.60;;;2.73;;
10452;SDS011;5274;51.992;8.518;2023-01-15T09:57:49;3.93;;;2.37;;
10452;SDS011;5274;51.992;8.518;2023-01-15T10:00:20;6.93;;;3.23;;
10452;SDS011;5274;51.992;8.518;2023-01-15T10:02:49;4.93;;;2.27;;
10452;SDS011;5274;51.992;8.518;2023-01-15T10:05:25;5.83;;;1.90;;
10452;SDS011;5274;51.992;8.518;2023-01-15T10:10:29;4.90;;;2.17;;
10452;SDS011;5274;51.992;8.518;2023-01-15T10:13:05;4.10;;;1.90;;
10452;SDS011;5274;51.992;8.518;2023-01-15T10:15:43;3.30;;;1.77;;
10452;SDS011;5274;51.992;8.518;2023-01-15T10:18:14;4.27;;;1.27;;
10452;SDS011;5274;51.992;8.518;2023-01-15T10:26:01;5.37;;;1.50;;
10452;SDS011;5274;51.992;8.518;2023-01-15T10:28:53;3.93;;;1.60;;
10452;SDS011;5274;51.992;8.518;2023-01-15T10:36:39;2.17;;;1.27;;
10452;SDS011;5274;51.992;8.518;2023-01-15T10:44:14;4.00;;;1.40;;
10452;SDS011;5274;51.992;8.518;2023-01-15T10:46:47;3.07;;;1.47;;
10452;SDS011;5274;51.992;8.518;2023-01-15T10:49:17;4.63;;;1.30;;
10452;SDS011;5274;51.992;8.518;2023-01-15T10:54:24;4.93;;;1.57;;
10452;SDS011;5274;51.992;8.518;2023-01-15T10:57:08;3.63;;;1.40;;
10452;SDS011;5274;51.992;8.518;2023-01-15T10:59:40;4.87;;;1.57;;
10452;SDS011;5274;51.992;8.518;2023-01-15T11:05:01;5.40;;;1.57;;
10452;SDS011;5274;51.992;8.518;2023-01-15T11:07:35;5.07;;;1.13;;
10452;SDS011;5274;51.992;8.518;2023-01-15T11:10:07;4.50;;;1.17;;
10452;SDS011;5274;51.992;8.518;2023-01-15T11:12:41;6.07;;;1.20;;
10452;SDS011;5274;51.992;8.518;2023-01-15T11:15:38;4.05;;;1.40;;
10452;SDS011;5274;51.992;8.518;2023-01-15T11:18:28;2.30;;;1.10;;
10452;SDS011;5274;51.992;8.518;2023-01-15T11:21:18;3.53;;;1.17;;
10452;SDS011;5274;51.992;8.518;2023-01-15T11:23:46;2.63;;;1.20;;
10452;SDS011;5274;51.992;8.518;2023-01-15T11:26:31;2.95;;;1.33;;
10452;SDS011;5274;51.992;8.518;2023-01-15T11:28:58;3.15;;;1.35;;
10452;SDS011;5274;51.992;8.518;2023-01-15T11:31:36;6.03;;;1.40;;
10452;SDS011;5274;51.992;8.518;2023-01-15T11:34:04;5.20;;;1.10;;
10452;SDS011;5274;51.992;8.518;2023-01-15T11:36:31;6.65;;;1.60;;
10452;SDS011;5274;51.992;8.518;2023-01-15T11:38:57;4.13;;;1.63;;
10452;SDS011;5274;51.992;8.518;2023-01-15T11:41:30;4.90;;;1.27;;
10452;SDS011;5274;51.992;8.518;2023-01-15T11:44:19;6.80;;;1.45;;
10452;SDS011;5274;51.992;8.518;2023-01-15T11:47:12;4.03;;;1.60;;
10452;SDS011;5274;51.992;8.518;2023-01-15T11:49:56;3.10;;;1.20;;
10452;SDS011;5274;51.992;8.518;2023-01-15T11:52:42;3.67;;;1.30;;
10452;SDS011;5274;51.992;8.518;2023-01-15T11:55:12;6.97;;;1.52;;
10452;SDS011;5274;51.992;8.518;2023-01-15T11:57:41;2.83;;;1.27;;
10452;SDS011;5274;51.992;8.518;2023-01-15T12:00:14;4.40;;;1.90;;
10452;SDS011;5274;51.992;8.518;2023-01-15T12:02:48;3.77;;;1.87;;
10452;SDS011;5274;51.992;8.518;2023-01-15T12:05:18;3.70;;;1.40;;
10452;SDS011;5274;51.992;8.518;2023-01-15T12:07:47;5.13;;;1.30;;
10452;SDS011;5274;51.992;8.518;2023-01-15T12:10:24;3.50;;;1.70;;
10452;SDS011;5274;51.992;8.518;2023-01-15T12:15:56;8.43;;;2.28;;
10452;SDS011;5274;51.992;8.518;2023-01-15T12:24:03;5.47;;;1.60;;
10452;SDS011;5274;51.992;8.518;2023-01-15T12:29:43;2.50;;;1.30;;
10452;SDS011;5274;51.992;8.518;2023-01-15T12:32:14;2.78;;;1.35;;
10452;SDS011;5274;51.992;8.518;2023-01-15T12:37:27;5.30;;;1.38;;
10452;SDS011;5274;51.992;8.518;2023-01-15T12:42:43;2.90;;;1.33;;
10452;SDS011;5274;51.992;8.518;2023-01-15T12:45:32;7.15;;;1.63;;
10452;SDS011;5274;51.992;8.518;2023-01-15T12:53:04;2.90;;;1.42;;
10452;SDS011;5274;51.992;8.518;2023-01-15T12:56:09;5.00;;;2.23;;
10452;SDS011;5274;51.992;8.518;2023-01-15T12:59:03;3.77;;;1.80;;
10452;SDS011;5274;51.992;8.518;2023-01-15T13:04:41;3.60;;;1.80;;
10452;SDS011;5274;51.992;8.518;2023-01-15T13:07:18;6.43;;;1.50;;
10452;SDS011;5274;51.992;8.518;2023-01-15T13:10:03;4.27;;;1.50;;
10452;SDS011;5274;51.992;8.518;2023-01-15T13:12:32;3.10;;;1.80;;
10452;SDS011;5274;51.992;8.518;2023-01-15T13:14:58;4.20;;;1.77;;
10452;SDS011;5274;51.992;8.518;2023-01-15T13:17:30;5.57;;;1.40;;
10452;SDS011;5274;51.992;8.518;2023-01-15T13:23:07;1.67;;;1.20;;
10452;SDS011;5274;51.992;8.518;2023-01-15T13:34:45;3.22;;;1.40;;
10452;SDS011;5274;51.992;8.518;2023-01-15T13:42:49;3.95;;;1.30;;
10452;SDS011;5274;51.992;8.518;2023-01-15T13:47:52;4.10;;;1.48;;
10452;SDS011;5274;51.992;8.518;2023-01-15T13:50:26;3.25;;;1.25;;
10452;SDS011;5274;51.992;8.518;2023-01-15T13:53:02;3.50;;;1.30;;
10452;SDS011;5274;51.992;8.518;2023-01-15T13:55:36;3.13;;;1.27;;
10452;SDS011;5274;51.992;8.518;2023-01-15T14:00:58;2.43;;;1.50;;
10452;SDS011;5274;51.992;8.518;2023-01-15T14:03:32;3.27;;;1.67;;
10452;SDS011;5274;51.992;8.518;2023-01-15T14:06:03;2.47;;;1.27;;
10452;SDS011;5274;51.992;8.518;2023-01-15T14:08:38;2.10;;;1.27;;
10452;SDS011;5274;51.992;8.518;2023-01-15T14:11:28;3.20;;;1.47;;
10452;SDS011;5274;51.992;8.518;2023-01-15T14:20:35;5.80;;;1.70;;
10452;SDS011;5274;51.992;8.518;2023-01-15T14:28:58;3.10;;;1.10;;
10452;SDS011;5274;51.992;8.518;2023-01-15T14:34:23;3.87;;;1.53;;
10452;SDS011;5274;51.992;8.518;2023-01-15T14:39:35;3.00;;;1.87;;
10452;SDS011;5274;51.992;8.518;2023-01-15T14:45:01;4.53;;;1.20;;
10452;SDS011;5274;51.992;8.518;2023-01-15T14:47:49;3.67;;;1.57;;
10452;SDS011;5274;51.992;8.518;2023-01-15T14:58:17;5.27;;;2.33;;
10452;SDS011;5274;51.992;8.518;2023-01-15T15:00:58;4.60;;;2.60;;
10452;SDS011;5274;51.992;8.518;2023-01-15T15:03:35;7.80;;;2.30;;
10452;SDS011;5274;51.992;8.518;2023-01-15T15:06:04;3.50;;;1.30;;
10452;SDS011;5274;51.992;8.518;2023-01-15T15:08:31;3.30;;;1.77;;
10452;SDS011;5274;51.992;8.518;2023-01-15T15:10:59;3.67;;;1.50;;
10452;SDS011;5274;51.992;8.518;2023-01-15T15:13:27;2.93;;;1.40;;
10452;SDS011;5274;51.992;8.518;2023-01-15T15:15:58;4.40;;;1.33;;
10452;SDS011;5274;51.992;8.518;2023-01-15T15:18:43;3.93;;;1.60;;
10452;SDS011;5274;51.992;8.518;2023-01-15T15:21:27;2.23;;;1.30;;
10452;SDS011;5274;51.992;8.518;2023-01-15T15:24:04;2.87;;;1.60;;
10452;SDS011;5274;51.992;8.518;2023-01-15T15:26:44;6.23;;;1.80;;
10452;SDS011;5274;51.992;8.518;2023-01-15T15:29:11;4.40;;;1.57;;
10452;SDS011;5274;51.992;8.518;2023-01-15T15:34:25;4.20;;;1.50;;
10452;SDS011;5274;51.992;8.518;2023-01-15T15:37:00;3.57;;;1.33;;
10452;SDS011;5274;51.992;8.518;2023-01-15T15:42:10;2.73;;;1.40;;
10452;SDS011;5274;51.992;8.518;2023-01-15T15:45:01;2.67;;;1.30;;
10452;SDS011;5274;51.992;8.518;2023-01-15T15:47:45;3.87;;;1.20;;
10452;SDS011;5274;51.992;8.518;2023-01-15T15:50:30;3.43;;;1.70;;
10452;SDS011;5274;51.992;8.518;2023-01-15T15:52:59;3.60;;;1.13;;
10452;SDS011;5274;51.992;8.518;2023-01-15T15:55:40;3.80;;;1.30;;
10452;SDS011;5274;51.992;8.518;2023-01-15T15:58:08;3.83;;;1.40;;
10452;SDS011;5274;51.992;8.518;2023-01-15T16:00:51;3.83;;;1.70;;
10452;SDS011;5274;51.992;8.518;2023-01-15T16:03:24;1.97;;;1.20;;
10452;SDS011;5274;51.992;8.518;2023-01-15T16:08:23;2.63;;;1.20;;
10452;SDS011;5274;51.992;8.518;2023-01-15T16:10:51;3.93;;;1.00;;
10452;SDS011;5274;51.992;8.518;2023-01-15T16:13:22;4.73;;;1.30;;
10452;SDS011;5274;51.992;8.518;2023-01-15T16:15:58;3.53;;;1.10;;
10452;SDS011;5274;51.992;8.518;2023-01-15T16:18:32;1.73;;;1.20;;
10452;SDS011;5274;51.992;8.518;2023-01-15T16:21:08;3.10;;;1.50;;
10452;SDS011;5274;51.992;8.518;2023-01-15T16:23:40;5.93;;;1.73;;
10452;SDS011;5274;51.992;8.518;2023-01-15T16:26:13;3.60;;;1.90;;
10452;SDS011;5274;51.992;8.518;2023-01-15T16:28:46;2.57;;;1.50;;
10452;SDS011;5274;51.992;8.518;2023-01-15T16:31:18;2.30;;;1.30;;
10452;SDS011;5274;51.992;8.518;2023-01-15T16:33:45;2.53;;;1.10;;
10452;SDS011;5274;51.992;8.518;2023-01-15T16:36:11;1.70;;;1.40;;
10452;SDS011;5274;51.992;8.518;2023-01-15T16:38:41;3.07;;;1.70;;
10452;SDS011;5274;51.992;8.518;2023-01-15T16:41:24;2.33;;;1.40;;
10452;SDS011;5274;51.992;8.518;2023-01-15T16:43:54;3.80;;;1.60;;
10452;SDS011;5274;51.992;8.518;2023-01-15T16:46:25;1.40;;;1.20;;
10452;SDS011;5274;51.992;8.518;2023-01-15T16:49:17;1.97;;;1.27;;
10452;SDS011;5274;51.992;8.518;2023-01-15T16:51:46;3.53;;;1.53;;
10452;SDS011;5274;51.992;8.518;2023-01-15T16:54:38;5.23;;;2.07;;
10452;SDS011;5274;51.992;8.518;2023-01-15T16:56:58;2.93;;;1.80;;
10452;SDS011;5274;51.992;8.518;2023-01-15T17:01:50;3.80;;;1.93;;
10452;SDS011;5274;51.992;8.518;2023-01-15T17:04:26;6.43;;;2.40;;
10452;SDS011;5274;51.992;8.518;2023-01-15T17:07:04;4.80;;;2.77;;
10452;SDS011;5274;51.992;8.518;2023-01-15T17:09:43;6.57;;;3.17;;
10452;SDS011;5274;51.992;8.518;2023-01-15T17:12:31;10.43;;;4.00;;
10452;SDS011;5274;51.992;8.518;2023-01-15T17:17:38;4.23;;;2.23;;
10452;SDS011;5274;51.992;8.518;2023-01-15T17:20:04;4.30;;;2.27;;
10452;SDS011;5274;51.992;8.518;2023-01-15T17:22:31;4.10;;;2.10;;
10452;SDS011;5274;51.992;8.518;2023-01-15T17:24:58;8.50;;;3.10;;
10452;SDS011;5274;51.992;8.518;2023-01-15T17:27:25;4.83;;;2.33;;
10452;SDS011;5274;51.992;8.518;2023-01-15T17:29:52;7.13;;;2.60;;